createdAt,value
2019-05-16T00:03:48.900Z,35.33
2019-05-16T00:08:54.740Z,34.47
2019-05-16T00:14:00.006Z,33.77
2019-05-16T00:19:08.999Z,34.87
2019-05-16T00:24:15.361Z,34.10
2019-05-16T00:29:20.895Z,32.67
2019-05-16T00:35:02.908Z,32.80
2019-05-16T00:40:08.442Z,31.67
2019-05-16T00:45:15.445Z,31.97
2019-05-16T00:50:21.076Z,32.40
2019-05-16T00:55:28.277Z,31.70
2019-05-16T01:00:38.146Z,31.30
2019-05-16T01:05:45.270Z,31.17
2019-05-16T01:10:53.319Z,30.93
2019-05-16T01:15:58.320Z,31.77
2019-05-16T01:21:07.701Z,31.00
2019-05-16T01:26:12.188Z,30.87
2019-05-16T01:31:19.189Z,29.67
2019-05-16T01:36:36.131Z,28.63
2019-05-16T01:41:34.688Z,28.60
2019-05-16T01:46:39.947Z,29.27
2019-05-16T01:51:48.499Z,28.97
2019-05-16T01:56:55.992Z,28.90
2019-05-16T02:02:01.318Z,28.00
2019-05-16T02:07:08.570Z,29.37
2019-05-16T02:12:14.270Z,27.73
2019-05-16T02:17:19.977Z,27.57
2019-05-16T02:22:25.442Z,27.27
2019-05-16T02:27:30.650Z,26.93
2019-05-16T02:32:35.781Z,26.47
2019-05-16T02:37:42.929Z,25.83
2019-05-16T02:42:51.223Z,26.40
2019-05-16T02:47:54.816Z,26.13
2019-05-16T02:53:01.346Z,26.17
2019-05-16T02:58:07.053Z,26.17
2019-05-16T03:03:14.047Z,24.77
2019-05-16T03:08:20.903Z,23.97
2019-05-16T03:13:31.123Z,24.83
2019-05-16T03:18:35.496Z,24.00
2019-05-16T03:23:42.362Z,25.03
2019-05-16T03:28:47.709Z,24.37
2019-05-16T03:33:59.634Z,24.80
2019-05-16T03:39:01.296Z,24.67
2019-05-16T03:44:11.088Z,24.13
2019-05-16T03:49:14.522Z,23.17
2019-05-16T03:54:21.229Z,24.10
2019-05-16T03:59:27.785Z,23.30
2019-05-16T04:04:32.870Z,23.03
2019-05-16T04:09:40.864Z,22.83
2019-05-16T04:14:44.454Z,22.03
2019-05-16T04:19:50.897Z,23.57
2019-05-16T04:24:56.729Z,22.03
2019-05-16T04:30:02.343Z,22.00
2019-05-16T04:35:11.196Z,21.37
2019-05-16T04:40:15.425Z,22.57
2019-05-16T04:45:21.269Z,22.03
2019-05-16T04:50:26.485Z,22.03
2019-05-16T04:55:31.768Z,22.53
2019-05-16T05:00:37.417Z,21.43
2019-05-16T05:05:44.388Z,20.63
2019-05-16T05:10:51.412Z,20.77
2019-05-16T05:15:56.329Z,21.10
2019-05-16T05:21:01.999Z,21.27
2019-05-16T05:26:07.047Z,20.03
2019-05-16T05:31:12.086Z,21.17
2019-05-16T05:36:17.443Z,21.80
2019-05-16T05:41:22.385Z,21.50
2019-05-16T05:46:27.467Z,20.63
2019-05-16T05:51:32.319Z,22.03
2019-05-16T05:56:39.667Z,21.07
2019-05-16T06:01:44.032Z,22.93
2019-05-16T06:06:50.351Z,21.80
2019-05-16T06:11:55.551Z,23.57
2019-05-16T06:17:01.214Z,25.90
2019-05-16T06:22:06.301Z,25.43
2019-05-16T06:27:11.343Z,23.70
2019-05-16T06:32:16.583Z,22.80
2019-05-16T06:37:21.746Z,22.47
2019-05-16T06:42:29.711Z,22.90
2019-05-16T06:47:39.879Z,23.73
2019-05-16T06:52:50.020Z,23.20
2019-05-16T06:57:57.359Z,23.77
2019-05-16T07:03:03.451Z,24.13
2019-05-16T07:08:10.450Z,24.30
2019-05-16T07:13:19.665Z,22.90
2019-05-16T07:18:25.174Z,24.53
2019-05-16T07:23:30.531Z,24.57
2019-05-16T07:28:35.692Z,26.50
2019-05-16T07:33:43.654Z,26.13
2019-05-16T07:38:50.705Z,29.67
2019-05-16T07:44:01.052Z,27.27
2019-05-16T07:49:11.468Z,28.97
2019-05-16T07:54:21.941Z,27.23
2019-05-16T07:59:29.970Z,30.50
2019-05-16T08:04:35.576Z,28.30
2019-05-16T08:09:40.676Z,28.17
2019-05-16T08:14:50.068Z,30.83
2019-05-16T08:19:54.694Z,29.33
2019-05-16T08:25:03.882Z,28.57
2019-05-16T08:30:21.371Z,28.20
2019-05-16T08:35:31.611Z,29.30
2019-05-16T08:41:01.215Z,30.97
2019-05-16T08:45:52.272Z,31.00
2019-05-16T08:51:02.762Z,32.37
2019-05-16T08:56:05.617Z,34.40
2019-05-16T09:01:14.783Z,38.33
2019-05-16T09:06:22.508Z,38.73
2019-05-16T09:11:35.737Z,46.20
2019-05-16T09:16:37.085Z,45.03
2019-05-16T09:21:41.026Z,44.63
2019-05-16T09:26:48.032Z,50.03
2019-05-16T09:32:07.869Z,51.57
2019-05-16T09:37:03.790Z,54.03
2019-05-16T09:42:09.257Z,57.80
2019-05-16T09:47:17.363Z,55.17
2019-05-16T09:52:21.065Z,64.63
2019-05-16T09:57:27.798Z,58.73
2019-05-16T10:02:37.764Z,61.83
2019-05-16T10:07:50.470Z,60.17
2019-05-16T10:12:57.871Z,68.43
2019-05-16T10:18:07.534Z,67.17
2019-05-16T10:23:14.789Z,62.97
2019-05-16T10:28:23.808Z,62.37
2019-05-16T10:33:29.234Z,67.20
2019-05-16T10:38:37.417Z,66.80
2019-05-16T10:43:50.007Z,68.57
2019-05-16T10:48:57.821Z,67.80
2019-05-16T10:54:13.632Z,70.57
2019-05-16T10:59:53.090Z,70.50
2019-05-16T11:04:29.416Z,67.70
2019-05-16T11:09:28.174Z,65.13
2019-05-16T11:14:37.066Z,67.87
2019-05-16T11:19:43.715Z,67.60
2019-05-16T11:24:49.074Z,68.43
2019-05-16T11:29:57.750Z,75.43
2019-05-16T11:35:07.300Z,68.47
2019-05-16T11:40:12.143Z,76.10
2019-05-16T11:45:18.296Z,63.67
2019-05-16T11:50:23.404Z,64.17
2019-05-16T11:55:33.618Z,61.23
2019-05-16T12:00:37.331Z,59.67
2019-05-16T12:05:42.791Z,60.00
2019-05-16T12:10:47.883Z,56.37
2019-05-16T12:15:52.875Z,58.10
2019-05-16T12:20:58.688Z,58.43
2019-05-16T12:26:03.788Z,58.87
2019-05-16T12:31:10.740Z,58.43
2019-05-16T12:36:17.585Z,56.77
2019-05-16T12:41:22.975Z,55.77
2019-05-16T12:46:28.119Z,54.83
2019-05-16T12:51:33.269Z,56.50
2019-05-16T12:56:38.265Z,55.53
2019-05-16T13:01:48.142Z,55.97
2019-05-16T13:06:53.336Z,54.90
2019-05-16T13:11:58.226Z,53.90
2019-05-16T13:17:03.135Z,56.70
2019-05-16T13:22:08.349Z,54.40
2019-05-16T13:27:19.938Z,55.70
2019-05-16T13:32:20.158Z,53.97
2019-05-16T13:37:27.444Z,54.17
2019-05-16T13:42:32.373Z,52.47
2019-05-16T13:47:37.875Z,54.73
2019-05-16T13:52:47.787Z,53.77
2019-05-16T13:57:51.639Z,50.17
2019-05-16T14:02:58.362Z,48.53
2019-05-16T14:08:03.478Z,47.63
2019-05-16T14:13:08.596Z,49.80
2019-05-16T14:18:14.291Z,48.03
2019-05-16T14:23:20.176Z,48.43
2019-05-16T14:28:25.119Z,48.03
2019-05-16T14:33:36.808Z,46.50
2019-05-16T14:38:42.220Z,45.93
2019-05-16T14:43:47.793Z,46.80
2019-05-16T14:48:52.899Z,46.47
2019-05-16T14:53:57.794Z,46.53
2019-05-16T14:59:02.797Z,43.40
2019-05-16T15:04:08.281Z,44.70
2019-05-16T15:09:13.355Z,45.60
2019-05-16T15:14:18.488Z,42.10
2019-05-16T15:19:23.738Z,44.33
2019-05-16T15:24:28.899Z,44.17
2019-05-16T15:29:33.900Z,42.20
2019-05-16T15:34:38.778Z,42.90
2019-05-16T15:39:44.297Z,44.03
2019-05-16T15:44:49.398Z,44.80
2019-05-16T15:49:56.644Z,43.20
2019-05-16T15:55:03.277Z,41.33
2019-05-16T16:00:10.484Z,41.60
2019-05-16T16:05:17.621Z,42.27
2019-05-16T16:10:27.028Z,43.80
2019-05-16T16:15:32.598Z,40.27
2019-05-16T16:20:37.686Z,41.70
2019-05-16T16:25:42.998Z,42.13
2019-05-16T16:30:48.271Z,42.00
2019-05-16T16:35:53.634Z,40.47
2019-05-16T16:40:58.890Z,41.40
2019-05-16T16:46:09.167Z,40.93
2019-05-16T16:51:31.677Z,38.83
2019-05-16T16:56:37.205Z,38.40
2019-05-16T17:01:42.359Z,40.43
2019-05-16T17:06:47.686Z,39.67
2019-05-16T17:11:52.812Z,39.83
2019-05-16T17:16:58.224Z,39.07
2019-05-16T17:22:16.231Z,38.17
2019-05-16T17:27:09.860Z,37.27
2019-05-16T17:32:16.690Z,36.40
2019-05-16T17:37:21.916Z,39.13
2019-05-16T17:42:27.292Z,37.03
2019-05-16T17:47:33.983Z,38.20
2019-05-16T17:52:39.304Z,37.07
2019-05-16T17:57:44.651Z,37.87
2019-05-16T18:02:50.443Z,36.83
2019-05-16T18:07:56.418Z,36.97
2019-05-16T18:13:01.507Z,35.97
2019-05-16T18:18:07.209Z,35.93
2019-05-16T18:23:12.529Z,34.10
2019-05-16T18:28:17.680Z,35.87
2019-05-16T18:33:22.841Z,34.10
2019-05-16T18:38:28.376Z,34.20
2019-05-16T18:43:33.429Z,34.40
2019-05-16T18:48:38.381Z,33.80
2019-05-16T18:53:46.389Z,33.60
2019-05-16T18:58:50.722Z,33.20
2019-05-16T19:03:57.635Z,33.83
2019-05-16T19:09:02.955Z,31.77
2019-05-16T19:14:09.312Z,33.97
2019-05-16T19:19:16.590Z,33.03
2019-05-16T19:24:21.996Z,32.70
2019-05-16T19:29:27.037Z,31.90
2019-05-16T19:34:33.123Z,31.40
2019-05-16T19:39:38.322Z,32.93
2019-05-16T19:44:43.316Z,31.50
2019-05-16T19:49:48.992Z,31.17
2019-05-16T19:54:56.310Z,32.83
2019-05-16T20:00:00.851Z,32.03
2019-05-16T20:05:07.889Z,29.90
2019-05-16T20:10:13.507Z,31.20
2019-05-16T20:15:18.853Z,30.13
2019-05-16T20:20:23.832Z,29.63
2019-05-16T20:25:28.798Z,28.40
2019-05-16T20:30:33.926Z,29.63
2019-05-16T20:35:38.811Z,29.07
2019-05-16T20:40:46.603Z,30.40
2019-05-16T20:45:51.945Z,28.43
2019-05-16T20:50:57.066Z,28.47
2019-05-16T20:56:02.896Z,28.23
2019-05-16T21:01:08.087Z,28.50
2019-05-16T21:06:13.194Z,28.63
2019-05-16T21:11:18.244Z,28.33
2019-05-16T21:16:23.235Z,27.97
2019-05-16T21:21:28.374Z,27.57
2019-05-16T21:26:33.684Z,27.43
2019-05-16T21:31:40.253Z,27.83
2019-05-16T21:36:46.935Z,26.80
2019-05-16T21:41:52.138Z,25.97
2019-05-16T21:46:57.334Z,26.90
2019-05-16T21:52:03.747Z,26.47
2019-05-16T21:57:09.428Z,27.07
2019-05-16T22:02:16.793Z,26.80
2019-05-16T22:07:33.123Z,26.37
2019-05-16T22:12:31.757Z,26.53
2019-05-16T22:17:38.488Z,26.80
2019-05-16T22:22:43.789Z,28.90
2019-05-16T22:27:49.020Z,26.00
2019-05-16T22:32:54.206Z,25.73
2019-05-16T22:37:59.552Z,25.23
2019-05-16T22:43:09.717Z,25.77
2019-05-16T22:48:11.272Z,26.20
2019-05-16T22:53:17.238Z,26.20
2019-05-16T22:58:22.778Z,24.63
2019-05-16T23:03:29.283Z,25.67
2019-05-16T23:08:36.397Z,23.87
2019-05-16T23:13:40.934Z,24.80
2019-05-16T23:18:46.504Z,25.77
2019-05-16T23:23:52.122Z,25.73
2019-05-16T23:28:57.210Z,25.37
2019-05-16T23:34:02.698Z,24.97
2019-05-16T23:39:08.362Z,25.27
2019-05-16T23:44:13.511Z,24.07
2019-05-16T23:49:18.554Z,24.40
2019-05-16T23:54:23.552Z,25.20
2019-05-16T23:59:28.549Z,24.30
